createdAt,value
2023-01-19T00:03:45.950Z,17.55
2023-01-19T00:08:51.214Z,18.83
2023-01-19T00:13:54.972Z,17.50
2023-01-19T00:19:00.109Z,18.55
2023-01-19T00:24:03.933Z,17.58
2023-01-19T00:29:07.869Z,17.17
2023-01-19T00:34:12.934Z,16.95
2023-01-19T00:39:16.714Z,17.77
2023-01-19T00:44:20.451Z,15.93
2023-01-19T00:49:25.486Z,16.65
2023-01-19T00:54:29.243Z,15.85
2023-01-19T00:59:32.966Z,15.48
2023-01-19T01:04:38.274Z,13.70
2023-01-19T01:09:42.046Z,14.73
2023-01-19T01:14:45.808Z,14.48
2023-01-19T01:19:50.943Z,14.70
2023-01-19T01:24:54.678Z,12.70
2023-01-19T01:29:58.405Z,14.02
2023-01-19T01:35:03.800Z,13.02
2023-01-19T01:40:09.071Z,10.52
2023-01-19T01:45:32.274Z,9.98
2023-01-19T01:51:01.036Z,9.55
2023-01-19T01:56:09.619Z,9.02
2023-01-19T02:01:31.147Z,9.48
2023-01-19T02:06:54.462Z,10.60
2023-01-19T02:12:15.876Z,10.77
2023-01-19T02:17:19.673Z,11.43
2023-01-19T02:22:35.792Z,11.55
2023-01-19T02:27:41.060Z,8.60
2023-01-19T02:32:45.401Z,9.35
2023-01-19T02:37:49.372Z,8.35
2023-01-19T02:43:00.852Z,8.65
2023-01-19T02:48:05.950Z,7.95
2023-01-19T02:53:37.079Z,8.30
2023-01-19T02:58:51.245Z,8.13
2023-01-19T03:04:00.702Z,7.62
2023-01-19T03:09:12.915Z,7.40
2023-01-19T03:14:23.510Z,6.75
2023-01-19T03:19:28.897Z,7.30
2023-01-19T03:24:37.923Z,7.45
2023-01-19T03:29:47.396Z,6.87
2023-01-19T03:34:52.607Z,6.50
2023-01-19T03:39:56.680Z,6.85
2023-01-19T03:45:02.831Z,6.28
2023-01-19T03:50:13.140Z,5.78
2023-01-19T03:55:16.944Z,4.32
2023-01-19T04:00:22.207Z,4.43
2023-01-19T04:05:26.368Z,3.17
2023-01-19T04:10:30.101Z,1.90
2023-01-19T04:15:35.369Z,1.42
2023-01-19T04:20:39.188Z,1.27
2023-01-19T04:25:42.913Z,1.40
2023-01-19T04:30:50.877Z,1.42
2023-01-19T04:40:58.356Z,2.12
2023-01-19T04:46:03.509Z,2.42
2023-01-19T04:51:07.309Z,2.92
2023-01-19T04:56:11.032Z,3.53
2023-01-19T05:01:16.063Z,4.30
2023-01-19T05:06:19.855Z,4.57
2023-01-19T05:11:23.555Z,6.00
2023-01-19T05:16:28.711Z,5.40
2023-01-19T05:21:32.592Z,5.15
2023-01-19T05:26:36.349Z,9.57
2023-01-19T05:31:41.420Z,4.95
2023-01-19T05:36:45.226Z,2.62
2023-01-19T05:41:48.981Z,2.37
2023-01-19T05:46:54.054Z,2.60
2023-01-19T05:51:57.778Z,2.90
2023-01-19T05:57:02.394Z,2.60
2023-01-19T06:02:07.681Z,2.65
2023-01-19T06:07:11.475Z,4.32
2023-01-19T06:12:15.176Z,5.72
2023-01-19T06:17:20.382Z,7.70
2023-01-19T06:22:24.534Z,8.05
2023-01-19T06:27:28.303Z,9.85
2023-01-19T06:32:33.738Z,11.38
2023-01-19T06:37:37.761Z,11.52
2023-01-19T06:42:41.660Z,13.20
2023-01-19T06:47:48.415Z,13.65
2023-01-19T06:52:52.509Z,15.18
2023-01-19T06:58:00.006Z,17.12
2023-01-19T07:03:07.435Z,19.67
2023-01-19T07:08:11.204Z,16.08
2023-01-19T07:13:14.948Z,23.58
2023-01-19T07:18:20.104Z,24.83
2023-01-19T07:23:24.066Z,25.88
2023-01-19T07:28:27.823Z,22.55
2023-01-19T07:33:33.068Z,23.58
2023-01-19T07:38:36.925Z,22.87
2023-01-19T07:43:40.677Z,21.65
2023-01-19T07:48:47.389Z,20.80
2023-01-19T07:53:51.829Z,20.42
2023-01-19T07:58:55.582Z,18.98
2023-01-19T08:04:00.686Z,20.75
2023-01-19T08:09:06.945Z,18.77
2023-01-19T08:14:11.177Z,16.67
2023-01-19T08:19:16.301Z,17.37
2023-01-19T08:24:22.855Z,16.30
2023-01-19T08:29:26.761Z,17.90
2023-01-19T08:34:31.984Z,19.80
2023-01-19T08:39:35.767Z,22.60
2023-01-19T08:44:49.752Z,23.30
2023-01-19T08:50:02.064Z,25.80
2023-01-19T08:55:07.136Z,27.52
2023-01-19T09:00:12.184Z,25.40
2023-01-19T09:05:17.335Z,22.87
2023-01-19T09:10:21.206Z,22.60
2023-01-19T09:15:24.963Z,23.00
2023-01-19T09:20:31.033Z,19.17
2023-01-19T09:25:34.983Z,19.67
2023-01-19T09:30:40.184Z,16.80
2023-01-19T09:35:46.896Z,20.27
2023-01-19T09:40:53.020Z,21.50
2023-01-19T09:46:00.305Z,19.40
2023-01-19T09:51:08.626Z,18.83
2023-01-19T09:56:14.834Z,20.60
2023-01-19T10:01:34.733Z,18.48
2023-01-19T10:06:40.437Z,18.42
2023-01-19T10:11:52.993Z,19.65
2023-01-19T10:17:05.479Z,19.73
2023-01-19T10:22:21.480Z,18.45
2023-01-19T10:27:29.256Z,17.60
2023-01-19T10:32:36.236Z,19.15
2023-01-19T10:37:42.024Z,17.70
2023-01-19T10:42:45.862Z,17.20
2023-01-19T10:47:50.632Z,17.27
2023-01-19T10:52:58.119Z,18.73
2023-01-19T10:58:02.479Z,19.20
2023-01-19T11:03:06.882Z,18.35
2023-01-19T11:08:23.864Z,16.95
2023-01-19T11:13:27.590Z,17.75
2023-01-19T11:18:34.007Z,18.40
2023-01-19T11:23:43.207Z,17.98
2023-01-19T11:28:51.351Z,14.93
2023-01-19T11:39:04.111Z,17.17
2023-01-19T11:49:23.229Z,14.52
2023-01-19T11:54:33.788Z,15.43
2023-01-19T11:59:37.614Z,14.85
2023-01-19T12:04:44.348Z,14.27
2023-01-19T12:09:53.700Z,13.15
2023-01-19T12:15:03.438Z,13.10
2023-01-19T12:20:18.567Z,14.07
2023-01-19T12:25:30.952Z,13.40
2023-01-19T12:30:34.947Z,10.80
2023-01-19T12:35:59.673Z,10.50
2023-01-19T12:41:29.263Z,9.88
2023-01-19T12:46:33.265Z,11.00
2023-01-19T12:51:37.180Z,13.45
2023-01-19T12:56:42.384Z,9.65
2023-01-19T13:02:24.690Z,9.15
2023-01-19T13:07:28.537Z,9.73
2023-01-19T13:12:33.652Z,9.15
2023-01-19T13:17:48.002Z,8.00
2023-01-19T13:23:19.636Z,7.87
2023-01-19T13:28:32.989Z,7.57
2023-01-19T13:33:47.563Z,8.13
2023-01-19T13:38:53.269Z,8.43
2023-01-19T13:44:02.810Z,7.97
2023-01-19T13:49:17.722Z,10.40
2023-01-19T13:54:21.559Z,11.60
2023-01-19T13:59:26.640Z,11.75
2023-01-19T14:04:32.395Z,12.77
2023-01-19T14:09:36.193Z,15.25
2023-01-19T14:14:41.563Z,13.20
2023-01-19T14:19:52.397Z,15.30
2023-01-19T14:24:56.131Z,15.85
2023-01-19T14:30:21.385Z,15.65
2023-01-19T14:35:26.008Z,19.08
2023-01-19T14:40:31.231Z,18.30
2023-01-19T14:45:39.327Z,19.83
2023-01-19T14:50:57.678Z,19.98
2023-01-19T14:56:07.523Z,21.25
2023-01-19T15:01:12.927Z,21.52
2023-01-19T15:06:18.981Z,21.33
2023-01-19T15:11:25.489Z,23.00
2023-01-19T15:16:34.070Z,23.42
2023-01-19T15:21:41.956Z,21.12
2023-01-19T15:26:45.971Z,22.20
2023-01-19T15:32:14.967Z,21.95
2023-01-19T15:37:18.838Z,22.08
2023-01-19T15:42:22.513Z,22.13
2023-01-19T15:47:27.627Z,22.37
2023-01-19T15:52:31.329Z,23.55
2023-01-19T15:57:35.491Z,22.83
2023-01-19T16:02:40.586Z,25.58
2023-01-19T16:07:44.479Z,22.52
2023-01-19T16:12:48.831Z,24.90
2023-01-19T16:17:54.083Z,22.10
2023-01-19T16:23:06.241Z,24.17
2023-01-19T16:28:17.789Z,23.48
2023-01-19T16:33:23.052Z,22.48
2023-01-19T16:38:27.019Z,23.92
2023-01-19T16:43:30.737Z,24.23
2023-01-19T16:48:36.015Z,25.67
2023-01-19T16:53:39.713Z,23.85
2023-01-19T16:58:43.941Z,24.83
2023-01-19T17:03:49.407Z,24.85
2023-01-19T17:08:53.937Z,24.30
2023-01-19T17:14:00.083Z,24.87
2023-01-19T17:19:08.017Z,25.33
2023-01-19T17:24:11.876Z,25.98
2023-01-19T17:29:16.105Z,26.20
2023-01-19T17:34:21.198Z,26.67
2023-01-19T17:39:24.965Z,26.17
2023-01-19T17:44:28.762Z,26.33
2023-01-19T17:49:33.914Z,27.05
2023-01-19T17:54:37.671Z,27.62
2023-01-19T17:59:43.792Z,26.62
2023-01-19T18:04:48.889Z,27.27
2023-01-19T18:09:55.191Z,26.65
2023-01-19T18:14:58.992Z,30.20
2023-01-19T18:20:04.621Z,28.75
2023-01-19T18:25:08.893Z,28.50
2023-01-19T18:30:13.552Z,27.50
2023-01-19T18:35:19.083Z,25.70
2023-01-19T18:40:22.889Z,27.65
2023-01-19T18:45:26.646Z,26.62
2023-01-19T18:50:32.076Z,26.33
2023-01-19T18:55:36.675Z,26.25
2023-01-19T19:00:40.702Z,26.35
2023-01-19T19:05:46.222Z,26.83
2023-01-19T19:10:50.136Z,27.98
2023-01-19T19:15:54.189Z,28.08
2023-01-19T19:20:59.598Z,26.70
2023-01-19T19:26:04.627Z,26.98
2023-01-19T19:31:10.393Z,26.45
2023-01-19T19:36:16.784Z,27.77
2023-01-19T19:41:22.423Z,25.85
2023-01-19T19:46:27.296Z,29.37
2023-01-19T19:51:32.693Z,26.27
2023-01-19T19:56:36.420Z,25.85
2023-01-19T20:01:40.282Z,27.60
2023-01-19T20:06:46.228Z,29.08
2023-01-19T20:11:50.106Z,27.52
2023-01-19T20:16:54.408Z,29.58
2023-01-19T20:21:59.607Z,33.40
2023-01-19T20:27:03.407Z,28.25
2023-01-19T20:32:07.966Z,30.75
2023-01-19T20:37:13.274Z,30.40
2023-01-19T20:42:17.190Z,32.25
2023-01-19T20:47:22.049Z,33.15
2023-01-19T20:52:27.252Z,35.33
2023-01-19T20:57:31.661Z,33.67
2023-01-19T21:02:35.407Z,33.42
2023-01-19T21:07:40.617Z,32.65
2023-01-19T21:12:44.866Z,32.88
2023-01-19T21:17:48.575Z,33.50
2023-01-19T21:22:53.847Z,33.30
2023-01-19T21:27:57.569Z,31.10
2023-01-19T21:33:02.261Z,31.73
2023-01-19T21:38:07.613Z,32.72
2023-01-19T21:43:12.190Z,33.25
2023-01-19T21:48:16.101Z,31.50
2023-01-19T21:53:21.185Z,32.22
2023-01-19T21:58:24.910Z,31.55
2023-01-19T22:03:28.974Z,33.22
2023-01-19T22:08:34.203Z,32.63
2023-01-19T22:13:39.479Z,30.23
2023-01-19T22:18:45.051Z,32.45
2023-01-19T22:23:51.821Z,32.22
2023-01-19T22:28:56.284Z,32.75
2023-01-19T22:34:00.144Z,33.75
2023-01-19T22:39:07.328Z,33.53
2023-01-19T22:44:13.753Z,29.73
2023-01-19T22:49:19.431Z,29.05
2023-01-19T22:54:24.523Z,30.35
2023-01-19T22:59:28.381Z,25.73
2023-01-19T23:04:32.121Z,25.90
2023-01-19T23:09:38.808Z,22.95
2023-01-19T23:14:42.651Z,23.02
2023-01-19T23:19:46.421Z,21.83
2023-01-19T23:24:51.526Z,21.95
2023-01-19T23:29:55.291Z,23.67
2023-01-19T23:34:59.010Z,24.95
2023-01-19T23:40:04.260Z,22.90
2023-01-19T23:45:09.692Z,26.70
2023-01-19T23:50:13.683Z,27.65
2023-01-19T23:55:18.900Z,30.02
